Time;durP1;ratioP1;P1;durP2;ratioP2;P2;SDS_P1;SDS_P2;PMS_P1;PMS_P2;Temp;Humidity;BMP_temperature;BMP_pressure;BME280_temperature;BME280_humidity;BME280_pressure;Samples;Min_cycle;Max_cycle;Signal;HPM_P1;HPM_P2
2024/01/08 00:02:56;;;;;;;23.70;11.60;;;;;;;-7.35;71.88;101136.27;130143;1257;114801;-67
2024/01/08 00:05:58;;;;;;;18.00;11.00;;;;;;;-7.35;71.79;101139.73;130233;1273;114813;-66
2024/01/08 00:09:00;;;;;;;22.40;11.00;;;;;;;-7.38;71.74;101134.42;129549;1262;127941;-67
2024/01/08 00:12:03;;;;;;;8.60;4.50;;;;;;;-7.39;71.74;101136.96;130223;1271;114699;-66
2024/01/08 00:15:05;;;;;;;23.70;10.80;;;;;;;-7.44;71.73;101137.67;130286;1273;114740;-66
2024/01/08 00:18:07;;;;;;;16.70;8.70;;;;;;;-7.47;71.48;101138.95;129991;1260;114811;-66
2024/01/08 00:21:09;;;;;;;21.90;10.90;;;;;;;-7.53;71.46;101144.11;130271;1267;114684;-65
2024/01/08 00:24:11;;;;;;;19.30;10.40;;;;;;;-7.56;71.63;101142.59;130078;1275;114954;-66
2024/01/08 00:27:13;;;;;;;18.20;10.80;;;;;;;-7.59;71.72;101141.23;130234;1269;114802;-66
2024/01/08 00:30:16;;;;;;;17.00;10.00;;;;;;;-7.61;71.96;101145.51;130378;1276;114726;-65
2024/01/08 00:33:18;;;;;;;18.70;10.40;;;;;;;-7.60;72.08;101145.04;130269;1254;115172;-66
2024/01/08 00:36:22;;;;;;;14.40;8.00;;;;;;;-7.56;72.36;101148.83;130258;1260;115419;-66
2024/01/08 00:39:25;;;;;;;17.50;9.60;;;;;;;-7.56;71.97;101148.50;130141;1261;114945;-66
2024/01/08 00:42:27;;;;;;;20.80;10.60;;;;;;;-7.52;72.18;101154.00;129564;1259;114877;-66
2024/01/08 00:45:29;;;;;;;21.20;10.80;;;;;;;-7.50;72.34;101157.75;130240;1261;114807;-66
2024/01/08 00:48:31;;;;;;;18.10;9.00;;;;;;;-7.47;71.95;101159.41;130058;1269;114799;-63
2024/01/08 00:51:33;;;;;;;24.90;11.50;;;;;;;-7.49;71.88;101164.02;130111;1276;129159;-65
2024/01/08 00:54:35;;;;;;;17.20;9.20;;;;;;;-7.51;71.91;101165.50;130135;1260;114743;-66
2024/01/08 00:57:38;;;;;;;15.50;8.10;;;;;;;-7.54;71.60;101165.23;130499;1260;115940;-67
2024/01/08 01:00:40;;;;;;;11.20;6.00;;;;;;;-7.57;71.54;101171.70;129939;1254;114934;-66
2024/01/08 01:03:42;;;;;;;23.50;10.90;;;;;;;-7.64;71.74;101166.95;130398;1258;115334;-66
2024/01/08 01:06:44;;;;;;;20.10;11.10;;;;;;;-7.66;71.77;101173.61;130480;1267;114654;-70
2024/01/08 01:09:46;;;;;;;21.40;11.40;;;;;;;-7.66;72.01;101173.44;129994;1265;114718;-66
2024/01/08 01:12:51;;;;;;;23.00;11.20;;;;;;;-7.66;72.24;101173.45;130365;1267;114638;-65
2024/01/08 01:15:53;;;;;;;14.50;7.40;;;;;;;-7.68;71.79;101179.08;129974;1267;114712;-65
2024/01/08 01:18:58;;;;;;;25.00;12.00;;;;;;;-7.74;71.74;101180.07;129951;1270;115140;-64
2024/01/08 01:22:00;;;;;;;21.00;9.80;;;;;;;-7.74;72.19;101179.70;129510;1270;114808;-66
2024/01/08 01:25:02;;;;;;;9.10;5.20;;;;;;;-7.77;71.91;101186.73;129955;1259;115189;-65
2024/01/08 01:28:05;;;;;;;15.50;9.00;;;;;;;-7.78;71.94;101185.97;129968;1270;114775;-64
2024/01/08 01:31:11;;;;;;;19.80;10.50;;;;;;;-7.78;72.09;101179.73;129567;1275;127936;-66
2024/01/08 01:34:13;;;;;;;25.60;11.90;;;;;;;-7.75;72.70;101182.98;129692;1260;116274;-66
2024/01/08 01:37:15;;;;;;;20.50;11.80;;;;;;;-7.70;72.43;101185.08;129854;1268;114785;-66
2024/01/08 01:40:17;;;;;;;18.60;9.20;;;;;;;-7.66;72.32;101183.86;129906;1260;114786;-66
2024/01/08 01:43:24;;;;;;;17.10;9.00;;;;;;;-7.62;72.33;101183.46;129980;1259;114766;-64
2024/01/08 01:46:37;;;;;;;20.30;10.90;;;;;;;-7.65;72.10;101180.42;129596;1264;115013;-66
2024/01/08 01:49:40;;;;;;;19.70;10.00;;;;;;;-7.67;72.29;101183.79;129418;1278;128352;-65
2024/01/08 01:52:42;;;;;;;21.30;10.70;;;;;;;-7.66;72.12;101178.80;130193;1259;114758;-64
2024/01/08 01:55:45;;;;;;;11.20;6.10;;;;;;;-7.66;71.97;101180.02;129942;1267;114860;-66
2024/01/08 01:58:46;;;;;;;15.80;8.50;;;;;;;-7.65;72.20;101186.30;129683;1278;114877;-64
2024/01/08 02:01:49;;;;;;;23.70;10.60;;;;;;;-7.68;71.97;101188.27;130219;1278;114846;-66
2024/01/08 02:04:51;;;;;;;20.30;10.60;;;;;;;-7.67;72.66;101193.00;130153;1254;115164;-66
2024/01/08 02:07:53;;;;;;;10.00;6.10;;;;;;;-7.64;72.07;101192.96;130219;1254;115694;-66
2024/01/08 02:10:55;;;;;;;20.10;10.80;;;;;;;-7.67;72.36;101196.81;129774;1263;127562;-66
2024/01/08 02:13:57;;;;;;;19.50;11.30;;;;;;;-7.72;72.24;101191.95;130171;1260;115348;-66
2024/01/08 02:16:59;;;;;;;20.10;10.90;;;;;;;-7.72;72.60;101198.68;129950;1268;114651;-65
2024/01/08 02:20:02;;;;;;;17.30;9.60;;;;;;;-7.72;72.23;101202.86;129523;1260;114968;-65
2024/01/08 02:23:05;;;;;;;18.30;9.50;;;;;;;-7.75;71.90;101204.30;130082;1264;114792;-65
2024/01/08 02:26:09;;;;;;;17.10;10.00;;;;;;;-7.74;72.61;101205.02;130062;1260;114757;-66
2024/01/08 02:29:11;;;;;;;21.10;10.70;;;;;;;-7.69;72.96;101210.41;130130;1259;114727;-66
2024/01/08 02:32:13;;;;;;;18.70;10.30;;;;;;;-7.65;72.86;101212.31;129992;1260;115303;-67
2024/01/08 02:35:19;;;;;;;19.00;9.30;;;;;;;-7.65;72.40;101215.61;130017;1260;114758;-64
2024/01/08 02:38:22;;;;;;;25.00;11.60;;;;;;;-7.70;72.24;101219.41;129750;1264;114817;-64
2024/01/08 02:41:24;;;;;;;15.10;8.30;;;;;;;-7.69;72.46;101221.52;130066;1267;115280;-64
2024/01/08 02:44:26;;;;;;;23.10;11.30;;;;;;;-7.73;72.39;101222.58;130239;1261;114835;-65
2024/01/08 02:47:29;;;;;;;20.00;9.90;;;;;;;-7.74;72.91;101227.41;129644;1276;128445;-66
2024/01/08 02:50:31;;;;;;;18.70;8.90;;;;;;;-7.72;72.64;101230.95;130074;1258;114728;-65
2024/01/08 02:53:33;;;;;;;13.80;7.30;;;;;;;-7.72;72.89;101232.33;130050;1254;114709;-67
2024/01/08 02:56:35;;;;;;;17.20;9.10;;;;;;;-7.73;73.00;101231.62;130266;1257;114711;-67
2024/01/08 02:59:37;;;;;;;18.40;9.30;;;;;;;-7.71;72.97;101237.40;130319;1257;114745;-65
2024/01/08 03:02:39;;;;;;;14.90;7.10;;;;;;;-7.71;72.94;101246.09;130284;1254;114945;-65
2024/01/08 03:05:41;;;;;;;21.50;11.00;;;;;;;-7.72;73.14;101249.48;130108;1269;114826;-65
2024/01/08 03:08:43;;;;;;;26.50;11.80;;;;;;;-7.73;72.98;101255.36;129997;1276;114852;-64
2024/01/08 03:11:45;;;;;;;9.10;4.60;;;;;;;-7.71;72.89;101257.17;130354;1254;114812;-64
2024/01/08 03:14:47;;;;;;;23.30;10.20;;;;;;;-7.76;72.28;101261.52;129919;1258;114716;-65
2024/01/08 03:17:49;;;;;;;16.00;8.50;;;;;;;-7.82;72.50;101264.73;130335;1257;114785;-65
2024/01/08 03:20:51;;;;;;;17.90;8.20;;;;;;;-7.87;72.79;101271.77;130333;1257;115160;-66
2024/01/08 03:23:53;;;;;;;21.00;10.80;;;;;;;-7.95;72.22;101267.15;129715;1267;114910;-65
2024/01/08 03:26:55;;;;;;;16.00;7.20;;;;;;;-7.98;72.58;101271.16;130400;1257;115269;-65
2024/01/08 03:29:57;;;;;;;21.20;11.30;;;;;;;-8.03;72.42;101273.54;130344;1260;114644;-67
2024/01/08 03:32:59;;;;;;;12.70;6.50;;;;;;;-8.07;72.41;101283.10;129920;1263;127943;-66
2024/01/08 03:36:02;;;;;;;22.80;11.90;;;;;;;-8.15;71.94;101284.16;130269;1254;115400;-67
2024/01/08 03:39:04;;;;;;;23.80;12.20;;;;;;;-8.19;72.64;101287.79;130291;1258;114830;-66
2024/01/08 03:42:06;;;;;;;12.90;8.00;;;;;;;-8.17;72.35;101288.77;130218;1260;114715;-67
2024/01/08 03:45:09;;;;;;;20.90;10.80;;;;;;;-8.18;72.24;101293.21;129604;1263;116428;-65
2024/01/08 03:48:11;;;;;;;25.00;12.90;;;;;;;-8.22;72.00;101295.48;129822;1275;114801;-63
2024/01/08 03:51:16;;;;;;;15.20;7.80;;;;;;;-8.25;71.74;101292.58;130001;1277;115424;-63
2024/01/08 03:54:18;;;;;;;27.50;12.80;;;;;;;-8.31;72.33;101287.81;129627;1260;114794;-62
2024/01/08 03:57:21;;;;;;;22.90;10.30;;;;;;;-8.36;71.85;101292.09;129911;1260;114719;-63
2024/01/08 04:00:24;;;;;;;27.50;11.70;;;;;;;-8.45;71.40;101295.73;129947;1258;114732;-64
2024/01/08 04:03:26;;;;;;;16.20;7.40;;;;;;;-8.48;71.92;101294.55;129759;1260;114803;-64
2024/01/08 04:06:31;;;;;;;12.60;7.30;;;;;;;-8.56;71.60;101301.13;129968;1259;114707;-64
2024/01/08 04:09:33;;;;;;;19.30;9.10;;;;;;;-8.63;71.31;101305.33;129959;1264;128535;-65
2024/01/08 04:12:35;;;;;;;20.70;11.90;;;;;;;-8.66;72.00;101309.68;129907;1261;114650;-64
2024/01/08 04:15:38;;;;;;;23.90;12.50;;;;;;;-8.70;71.47;101311.45;130064;1259;114981;-65
2024/01/08 04:18:40;;;;;;;25.00;11.80;;;;;;;-8.71;71.67;101315.02;130278;1260;115501;-64
2024/01/08 04:21:42;;;;;;;16.80;7.80;;;;;;;-8.72;71.87;101319.48;130247;1260;115096;-64
2024/01/08 04:24:44;;;;;;;16.40;7.70;;;;;;;-8.75;71.74;101329.56;130255;1259;114870;-64
2024/01/08 04:27:48;;;;;;;24.90;12.40;;;;;;;-8.79;71.21;101334.20;129987;1260;114821;-64
2024/01/08 04:30:50;;;;;;;22.10;11.30;;;;;;;-8.83;71.52;101337.14;129855;1260;127640;-64
2024/01/08 04:33:52;;;;;;;23.70;10.70;;;;;;;-8.87;71.49;101341.52;129969;1261;114864;-64
2024/01/08 04:36:54;;;;;;;20.10;10.80;;;;;;;-8.85;71.57;101347.29;130398;1268;114837;-65
2024/01/08 04:39:55;;;;;;;16.80;8.90;;;;;;;-8.84;71.54;101344.39;130161;1276;114764;-64
2024/01/08 04:42:57;;;;;;;21.90;9.40;;;;;;;-8.87;71.11;101353.60;130142;1260;114802;-64
2024/01/08 04:46:00;;;;;;;25.00;11.90;;;;;;;-8.91;71.72;101356.52;130154;1261;115100;-65
2024/01/08 04:49:03;;;;;;;18.80;11.00;;;;;;;-8.91;71.30;101360.34;129943;1277;114900;-66
2024/01/08 04:52:06;;;;;;;21.00;10.00;;;;;;;-8.95;71.25;101360.48;129951;1270;129700;-70
2024/01/08 04:55:10;;;;;;;23.00;11.60;;;;;;;-8.97;71.53;101365.75;130232;1260;114735;-65
2024/01/08 04:58:12;;;;;;;18.10;9.10;;;;;;;-8.97;71.83;101366.30;130193;1269;114700;-65
2024/01/08 05:01:14;;;;;;;27.50;12.10;;;;;;;-8.96;71.44;101371.19;130207;1260;114795;-64
2024/01/08 05:04:17;;;;;;;18.30;9.30;;;;;;;-8.94;71.46;101374.04;129844;1261;114721;-65
2024/01/08 05:07:19;;;;;;;15.00;9.10;;;;;;;-8.92;72.06;101380.90;129933;1259;115710;-65
2024/01/08 05:10:21;;;;;;;28.60;11.90;;;;;;;-8.95;71.25;101382.64;129797;1259;115364;-64
2024/01/08 05:13:23;;;;;;;18.90;8.20;;;;;;;-8.99;71.86;101387.99;129984;1270;114794;-66
2024/01/08 05:16:26;;;;;;;20.70;11.70;;;;;;;-9.00;71.42;101392.77;129516;1260;115044;-64
2024/01/08 05:19:28;;;;;;;23.80;11.90;;;;;;;-9.03;71.77;101400.98;129962;1259;114809;-65
2024/01/08 05:22:31;;;;;;;22.10;9.80;;;;;;;-9.04;71.67;101407.85;129938;1261;114677;-64
2024/01/08 05:25:34;;;;;;;23.40;11.10;;;;;;;-9.07;71.50;101406.67;129811;1277;114952;-65
2024/01/08 05:28:36;;;;;;;26.60;11.00;;;;;;;-9.07;71.92;101409.60;129723;1263;114790;-65
2024/01/08 05:31:40;;;;;;;22.60;11.90;;;;;;;-9.04;72.11;101410.77;129907;1260;114753;-66
2024/01/08 05:34:42;;;;;;;22.30;10.30;;;;;;;-8.99;71.90;101417.75;129975;1259;114798;-66
2024/01/08 05:37:44;;;;;;;9.60;5.90;;;;;;;-9.01;71.82;101422.34;129941;1276;114744;-66
2024/01/08 05:40:49;;;;;;;19.70;9.70;;;;;;;-9.03;71.48;101421.23;130038;1254;114744;-66
2024/01/08 05:43:56;;;;;;;22.80;11.10;;;;;;;-9.04;72.09;101428.44;129809;1264;114931;-67
2024/01/08 05:47:00;;;;;;;24.70;11.80;;;;;;;-9.04;71.88;101426.02;130170;1260;114643;-66
2024/01/08 05:50:04;;;;;;;20.80;10.80;;;;;;;-9.01;72.09;101425.45;130121;1273;114727;-66
2024/01/08 05:53:06;;;;;;;20.70;9.50;;;;;;;-8.98;72.08;101431.83;130335;1260;114753;-65
2024/01/08 05:56:08;;;;;;;17.90;9.40;;;;;;;-8.99;71.95;101430.73;130085;1261;114839;-66
2024/01/08 05:59:10;;;;;;;16.20;9.30;;;;;;;-9.05;70.99;101434.79;130160;1258;114740;-66
2024/01/08 06:02:11;;;;;;;22.60;12.10;;;;;;;-9.15;71.20;101445.55;129849;1260;114810;-65
2024/01/08 06:05:13;;;;;;;34.20;13.00;;;;;;;-9.19;71.35;101444.67;130106;1260;115208;-66
2024/01/08 06:08:16;;;;;;;14.30;6.10;;;;;;;-9.20;71.47;101448.08;130246;1259;114727;-66
2024/01/08 06:11:17;;;;;;;20.30;9.80;;;;;;;-9.27;70.84;101458.45;129520;1274;127975;-66
2024/01/08 06:14:20;;;;;;;19.80;10.70;;;;;;;-9.40;71.11;101458.02;130227;1265;115273;-66
2024/01/08 06:17:22;;;;;;;25.90;12.10;;;;;;;-9.42;71.08;101466.36;130034;1260;114702;-66
2024/01/08 06:20:24;;;;;;;21.70;11.80;;;;;;;-9.42;71.33;101468.94;130149;1260;114715;-67
2024/01/08 06:23:26;;;;;;;13.40;5.70;;;;;;;-9.41;71.37;101474.02;130278;1260;114694;-67
2024/01/08 06:26:30;;;;;;;19.70;10.50;;;;;;;-9.44;71.30;101478.04;130233;1260;114775;-66
2024/01/08 06:29:32;;;;;;;18.50;8.30;;;;;;;-9.47;71.11;101479.45;129584;1261;114735;-66
2024/01/08 06:32:34;;;;;;;17.90;9.30;;;;;;;-9.50;70.86;101479.45;129939;1257;115023;-66
2024/01/08 06:35:36;;;;;;;22.30;10.60;;;;;;;-9.53;71.13;101482.94;130175;1260;114703;-66
2024/01/08 06:38:38;;;;;;;13.90;8.10;;;;;;;-9.51;71.41;101491.17;130254;1257;114818;-67
2024/01/08 06:41:40;;;;;;;18.30;10.20;;;;;;;-9.48;71.54;101497.89;130192;1258;115132;-66
2024/01/08 06:44:42;;;;;;;19.50;10.30;;;;;;;-9.46;71.79;101497.83;130223;1254;114760;-66
2024/01/08 06:47:44;;;;;;;26.30;14.50;;;;;;;-9.43;71.83;101502.14;130262;1260;114697;-66
2024/01/08 06:50:46;;;;;;;20.30;9.50;;;;;;;-9.40;71.57;101506.05;129854;1262;114840;-66
2024/01/08 06:53:48;;;;;;;23.90;11.70;;;;;;;-9.42;71.43;101508.57;130126;1260;114793;-65
2024/01/08 06:56:50;;;;;;;22.70;11.10;;;;;;;-9.43;71.49;101512.64;130188;1259;114676;-66
2024/01/08 06:59:52;;;;;;;25.10;11.90;;;;;;;-9.43;71.68;101517.66;129808;1277;114781;-66
2024/01/08 07:02:54;;;;;;;23.30;10.80;;;;;;;-9.43;71.69;101520.45;130143;1254;115471;-67
2024/01/08 07:05:56;;;;;;;17.30;9.40;;;;;;;-9.44;71.64;101522.84;130188;1259;114795;-67
2024/01/08 07:08:58;;;;;;;10.60;4.70;;;;;;;-9.47;71.41;101530.46;129886;1262;114865;-66
2024/01/08 07:12:01;;;;;;;23.90;10.10;;;;;;;-9.52;71.18;101530.21;130159;1261;114715;-69
2024/01/08 07:15:04;;;;;;;13.70;8.20;;;;;;;-9.51;71.50;101531.96;130213;1259;115316;-69
2024/01/08 07:18:10;;;;;;;22.10;10.30;;;;;;;-9.45;71.56;101540.42;130349;1259;114766;-69
2024/01/08 07:21:16;;;;;;;29.70;12.40;;;;;;;-9.40;71.45;101540.99;130013;1254;114907;-67
2024/01/08 07:24:18;;;;;;;20.40;10.20;;;;;;;-9.40;71.39;101544.61;130399;1260;114789;-71
2024/01/08 07:27:21;;;;;;;21.20;11.80;;;;;;;-9.40;71.22;101548.29;130023;1259;114742;-71
2024/01/08 07:30:23;;;;;;;24.90;12.90;;;;;;;-9.34;71.66;101557.91;130368;1260;114705;-71
2024/01/08 07:33:25;;;;;;;21.10;9.60;;;;;;;-9.29;71.66;101560.44;130449;1271;114746;-73
2024/01/08 07:36:28;;;;;;;23.00;11.50;;;;;;;-9.26;71.48;101566.10;130299;1260;114688;-72
2024/01/08 07:39:32;;;;;;;21.80;10.50;;;;;;;-9.24;71.33;101570.89;130339;1259;114721;-73
2024/01/08 07:42:34;;;;;;;22.30;9.90;;;;;;;-9.20;71.60;101575.60;130330;1259;115101;-73
2024/01/08 07:45:36;;;;;;;21.10;10.60;;;;;;;-9.15;71.47;101578.63;130391;1257;114710;-73
2024/01/08 07:48:38;;;;;;;23.10;12.20;;;;;;;-9.07;71.60;101584.55;130213;1257;114683;-71
2024/01/08 07:51:40;;;;;;;13.60;8.70;;;;;;;-9.01;71.38;101586.60;130317;1259;115334;-73
2024/01/08 07:54:42;;;;;;;22.30;11.60;;;;;;;-8.98;71.45;101586.89;130355;1254;115166;-74
2024/01/08 07:57:44;;;;;;;23.20;13.30;;;;;;;-8.95;71.18;101586.39;130382;1254;114712;-70
2024/01/08 08:00:47;;;;;;;25.50;11.20;;;;;;;-8.92;71.10;101584.95;130375;1254;114769;-72
2024/01/08 08:03:50;;;;;;;22.30;11.50;;;;;;;-8.85;71.48;101588.61;130289;1257;114801;-73
2024/01/08 08:06:52;;;;;;;36.70;20.30;;;;;;;-8.83;71.14;101589.57;130264;1271;114709;-70
2024/01/08 08:09:54;;;;;;;26.90;12.80;;;;;;;-8.88;70.25;101598.84;130323;1256;114622;-72
2024/01/08 08:12:56;;;;;;;14.70;7.60;;;;;;;-8.94;70.49;101603.73;130284;1260;129300;-72
2024/01/08 08:15:59;;;;;;;12.60;6.30;;;;;;;-8.98;70.54;101606.27;130355;1254;114694;-72
2024/01/08 08:19:02;;;;;;;23.10;12.20;;;;;;;-9.02;70.54;101608.73;130266;1269;114863;-71
2024/01/08 08:22:04;;;;;;;22.90;12.60;;;;;;;-9.01;71.01;101612.91;130366;1270;114799;-72
2024/01/08 08:25:06;;;;;;;24.40;11.40;;;;;;;-8.95;71.07;101622.86;130337;1258;114796;-74
2024/01/08 08:28:08;;;;;;;25.70;11.80;;;;;;;-8.86;71.03;101623.70;130370;1263;114720;-71
2024/01/08 08:31:10;;;;;;;23.90;11.70;;;;;;;-8.77;70.97;101625.20;130194;1256;114715;-71
2024/01/08 08:34:12;;;;;;;28.80;14.80;;;;;;;-8.68;70.97;101633.08;130303;1265;114786;-69
2024/01/08 08:37:14;;;;;;;20.40;10.90;;;;;;;-8.60;71.02;101638.86;130012;1275;114728;-70
2024/01/08 08:40:16;;;;;;;25.20;11.30;;;;;;;-8.46;71.19;101640.72;130233;1260;114773;-71
2024/01/08 08:43:18;;;;;;;20.10;10.30;;;;;;;-8.34;71.32;101642.19;130254;1254;115391;-71
2024/01/08 08:46:20;;;;;;;20.80;10.30;;;;;;;-8.29;70.51;101647.80;130196;1257;114621;-72
2024/01/08 08:49:22;;;;;;;17.70;10.40;;;;;;;-8.33;69.65;101651.07;130120;1259;114754;-72
2024/01/08 08:52:24;;;;;;;28.90;12.90;;;;;;;-8.44;69.68;101655.73;130314;1254;114770;-74
2024/01/08 08:55:26;;;;;;;24.20;11.30;;;;;;;-8.45;69.71;101661.20;130268;1255;128775;-77
2024/01/08 08:58:29;;;;;;;23.50;12.00;;;;;;;-8.40;69.93;101669.77;130305;1259;115208;-72
2024/01/08 09:01:31;;;;;;;21.60;11.40;;;;;;;-8.30;70.35;101678.23;130118;1259;115174;-71
2024/01/08 09:04:33;;;;;;;24.50;13.10;;;;;;;-8.21;70.36;101679.88;130235;1259;114728;-66
2024/01/08 09:07:34;;;;;;;20.10;10.40;;;;;;;-8.15;70.42;101680.31;130478;1259;114666;-67
2024/01/08 09:10:37;;;;;;;16.90;9.70;;;;;;;-8.17;69.88;101682.84;130578;1254;115358;-69
2024/01/08 09:13:39;;;;;;;18.60;10.50;;;;;;;-8.23;69.38;101678.91;130591;1257;114709;-66
2024/01/08 09:16:41;;;;;;;24.10;11.50;;;;;;;-8.27;69.53;101684.79;130349;1258;114806;-66
2024/01/08 09:19:43;;;;;;;23.70;11.10;;;;;;;-8.27;69.91;101687.39;130613;1254;116207;-67
2024/01/08 09:22:45;;;;;;;28.80;14.90;;;;;;;-8.32;69.80;101687.33;130146;1262;115139;-66
2024/01/08 09:25:47;;;;;;;22.60;11.90;;;;;;;-8.32;69.93;101688.55;130179;1257;114858;-66
2024/01/08 09:28:50;;;;;;;22.50;12.30;;;;;;;-8.22;69.93;101685.71;130289;1276;114831;-66
2024/01/08 09:31:53;;;;;;;27.00;11.60;;;;;;;-8.11;70.34;101684.90;129889;1259;115158;-66
2024/01/08 09:34:55;;;;;;;21.30;10.50;;;;;;;-8.03;70.53;101683.16;130238;1259;115000;-66
2024/01/08 09:37:56;;;;;;;29.90;12.70;;;;;;;-7.93;70.71;101682.61;130304;1259;114630;-66
2024/01/08 09:40:58;;;;;;;25.90;12.20;;;;;;;-7.83;70.28;101691.59;130310;1269;114909;-66
2024/01/08 09:44:04;;;;;;;24.90;13.10;;;;;;;-7.75;69.95;101694.41;130207;1254;114712;-66
2024/01/08 09:47:06;;;;;;;24.30;11.40;;;;;;;-7.71;70.25;101694.27;129862;1257;114839;-66
2024/01/08 09:50:13;;;;;;;24.90;13.50;;;;;;;-7.70;69.23;101694.98;130270;1270;114642;-66
2024/01/08 09:53:15;;;;;;;21.30;9.90;;;;;;;-7.70;69.22;101698.95;130241;1259;114755;-66
2024/01/08 09:56:20;;;;;;;23.90;10.60;;;;;;;-7.78;68.78;101698.77;130170;1256;115398;-65
2024/01/08 09:59:21;;;;;;;25.10;11.60;;;;;;;-7.78;69.27;101695.13;130363;1257;115411;-66
2024/01/08 10:02:23;;;;;;;22.90;10.60;;;;;;;-7.72;69.64;101694.92;130251;1259;115225;-66
2024/01/08 10:05:27;;;;;;;24.30;11.60;;;;;;;-7.65;69.52;101697.84;130369;1254;114937;-65
2024/01/08 10:08:31;;;;;;;22.90;11.50;;;;;;;-7.58;69.45;101701.09;130024;1262;114728;-66
2024/01/08 10:11:33;;;;;;;23.00;11.10;;;;;;;-7.56;69.50;101703.98;130360;1259;114638;-66
2024/01/08 10:14:35;;;;;;;22.00;10.80;;;;;;;-7.50;68.98;101702.70;130212;1260;115151;-66
2024/01/08 10:17:37;;;;;;;18.60;11.10;;;;;;;-7.47;69.30;101701.96;130333;1254;114793;-65
2024/01/08 10:20:39;;;;;;;25.70;13.00;;;;;;;-7.46;69.29;101705.13;130332;1261;114716;-65
2024/01/08 10:23:41;;;;;;;19.70;11.30;;;;;;;-7.41;69.51;101703.08;130256;1253;114756;-66
2024/01/08 10:26:43;;;;;;;22.50;11.60;;;;;;;-7.35;69.39;101700.05;130388;1257;115334;-66
2024/01/08 10:29:45;;;;;;;25.10;11.20;;;;;;;-7.32;69.13;101701.09;130038;1253;114980;-65
2024/01/08 10:32:47;;;;;;;21.10;10.50;;;;;;;-7.34;68.55;101702.05;130302;1257;115237;-66
2024/01/08 10:35:49;;;;;;;19.20;9.80;;;;;;;-7.35;68.54;101704.58;130365;1253;115732;-65
2024/01/08 10:38:56;;;;;;;22.90;11.20;;;;;;;-7.43;68.21;101702.81;130126;1259;127717;-67
2024/01/08 10:42:11;;;;;;;20.40;9.70;;;;;;;-7.47;68.45;101706.10;129748;1259;114875;-65
2024/01/08 10:45:42;;;;;;;20.60;11.00;;;;;;;-7.49;68.34;101714.17;129767;1264;114920;-66
2024/01/08 10:48:45;;;;;;;23.30;11.00;;;;;;;-7.47;68.29;101710.44;129738;1278;114765;-65
2024/01/08 10:51:48;;;;;;;24.40;12.80;;;;;;;-7.41;68.87;101701.67;129834;1261;114909;-66
2024/01/08 10:55:00;;;;;;;18.40;8.80;;;;;;;-7.37;68.32;101704.69;129651;1264;114851;-66
2024/01/08 10:58:04;;;;;;;18.90;10.80;;;;;;;-7.37;68.26;101706.60;129564;1262;114841;-66
2024/01/08 11:01:07;;;;;;;25.50;11.20;;;;;;;-7.36;68.39;101703.14;129454;1264;114836;-65
2024/01/08 11:04:09;;;;;;;26.90;12.80;;;;;;;-7.37;68.36;101705.90;129710;1260;114913;-66
2024/01/08 11:07:13;;;;;;;25.10;11.60;;;;;;;-7.34;68.41;101707.95;129964;1265;115383;-66
2024/01/08 11:10:16;;;;;;;21.50;9.30;;;;;;;-7.31;68.60;101704.94;130353;1254;114723;-66
2024/01/08 11:13:18;;;;;;;17.90;8.70;;;;;;;-7.25;68.81;101709.23;130161;1271;182207;-66
2024/01/08 11:16:27;;;;;;;24.60;11.10;;;;;;;-7.22;68.55;101710.73;129988;1259;114986;-66
2024/01/08 11:19:29;;;;;;;21.10;10.20;;;;;;;-7.17;68.49;101710.95;130342;1277;114780;-66
2024/01/08 11:22:33;;;;;;;20.60;10.30;;;;;;;-7.11;68.38;101712.61;130017;1257;115420;-66
2024/01/08 11:25:35;;;;;;;21.30;11.00;;;;;;;-7.09;67.91;101716.70;130342;1257;114770;-65
2024/01/08 11:28:39;;;;;;;23.90;12.10;;;;;;;-7.08;68.11;101716.20;130230;1271;114875;-66
2024/01/08 11:31:41;;;;;;;26.50;12.10;;;;;;;-7.06;68.15;101713.23;130312;1276;114799;-66
2024/01/08 11:34:57;;;;;;;18.50;9.70;;;;;;;-7.00;67.90;101715.54;130356;1276;114772;-66
2024/01/08 11:38:24;;;;;;;22.60;10.60;;;;;;;-7.02;67.34;101713.01;130297;1257;114793;-67
2024/01/08 11:41:26;;;;;;;21.10;10.70;;;;;;;-7.01;67.80;101716.90;130362;1258;114700;-65
2024/01/08 11:44:28;;;;;;;25.20;11.80;;;;;;;-7.01;67.26;101713.05;129932;1258;115176;-65
2024/01/08 11:47:45;;;;;;;20.80;10.00;;;;;;;-7.00;67.61;101712.40;130237;1257;127623;-65
2024/01/08 11:50:48;;;;;;;23.60;13.00;;;;;;;-6.97;67.53;101713.23;130004;1276;116585;-66
2024/01/08 11:53:55;;;;;;;10.90;6.30;;;;;;;-6.92;67.95;101710.16;130063;1257;114892;-65
2024/01/08 11:57:12;;;;;;;30.40;14.30;;;;;;;-6.84;67.84;101715.90;129638;1259;114738;-66
2024/01/08 12:00:19;;;;;;;27.80;12.90;;;;;;;-6.80;67.41;101718.84;130290;1256;114775;-67
2024/01/08 12:03:23;;;;;;;25.70;10.70;;;;;;;-6.81;67.39;101716.23;129944;1254;127913;-66
2024/01/08 12:06:27;;;;;;;28.70;14.00;;;;;;;-6.79;67.30;101717.49;129758;1255;114771;-66
2024/01/08 12:09:31;;;;;;;22.90;10.30;;;;;;;-6.82;66.96;101718.23;129714;1259;114818;-65
2024/01/08 12:12:35;;;;;;;15.50;6.60;;;;;;;-6.84;67.02;101717.08;130060;1259;114836;-65
2024/01/08 12:15:38;;;;;;;28.20;13.40;;;;;;;-6.84;67.04;101715.52;130086;1264;114792;-65
2024/01/08 12:18:44;;;;;;;29.10;13.30;;;;;;;-6.84;67.28;101717.13;129825;1259;115339;-65
2024/01/08 12:21:46;;;;;;;28.50;12.70;;;;;;;-6.79;67.39;101712.14;130021;1262;114967;-65
2024/01/08 12:25:07;;;;;;;23.10;11.70;;;;;;;-6.74;67.54;101713.23;129867;1258;114784;-65
2024/01/08 12:28:09;;;;;;;22.90;12.00;;;;;;;-6.70;67.30;101709.73;130085;1262;114796;-65
2024/01/08 12:31:11;;;;;;;21.30;10.80;;;;;;;-6.70;66.95;101713.38;129645;1254;115186;-65
2024/01/08 12:34:13;;;;;;;29.10;13.60;;;;;;;-6.70;66.82;101714.95;130529;1258;114716;-65
2024/01/08 12:37:17;;;;;;;28.90;12.60;;;;;;;-6.69;66.97;101709.77;130278;1274;129651;-65
2024/01/08 12:40:19;;;;;;;32.60;14.70;;;;;;;-6.67;67.43;101710.20;129643;1253;114782;-64
2024/01/08 12:43:21;;;;;;;22.10;10.10;;;;;;;-6.62;67.42;101715.64;129831;1256;115209;-64
2024/01/08 12:46:23;;;;;;;27.00;14.10;;;;;;;-6.58;67.32;101717.36;129926;1259;114748;-64
2024/01/08 12:49:26;;;;;;;34.80;13.70;;;;;;;-6.57;67.26;101721.62;130063;1254;115553;-65
2024/01/08 12:52:28;;;;;;;24.10;11.80;;;;;;;-6.50;67.63;101720.14;130353;1254;114623;-65
2024/01/08 12:55:30;;;;;;;18.90;8.40;;;;;;;-6.47;67.21;101726.03;130222;1254;114946;-65
2024/01/08 12:58:32;;;;;;;24.20;11.50;;;;;;;-6.49;66.99;101725.26;130066;1271;114707;-65
2024/01/08 13:01:35;;;;;;;25.40;11.60;;;;;;;-6.50;67.05;101731.09;130209;1254;114801;-64
2024/01/08 13:04:37;;;;;;;30.60;14.00;;;;;;;-6.51;66.56;101734.54;130242;1259;114712;-65
2024/01/08 13:07:39;;;;;;;32.30;13.50;;;;;;;-6.54;66.50;101734.06;130227;1260;114786;-65
2024/01/08 13:10:41;;;;;;;30.40;12.20;;;;;;;-6.56;66.61;101736.05;130293;1259;114763;-65
2024/01/08 13:13:43;;;;;;;24.40;10.30;;;;;;;-6.57;66.81;101740.37;129928;1254;114825;-65
2024/01/08 13:16:47;;;;;;;23.40;10.50;;;;;;;-6.58;66.50;101747.45;130258;1258;114741;-65
2024/01/08 13:19:49;;;;;;;19.70;8.90;;;;;;;-6.59;66.78;101742.90;130367;1257;114726;-65
2024/01/08 13:22:50;;;;;;;21.10;10.80;;;;;;;-6.58;66.55;101746.59;130343;1259;114782;-66
2024/01/08 13:25:54;;;;;;;34.50;14.50;;;;;;;-6.57;66.78;101750.10;130383;1273;115125;-66
2024/01/08 13:28:56;;;;;;;27.30;13.20;;;;;;;-6.55;67.06;101758.88;130443;1257;114766;-65
2024/01/08 13:31:59;;;;;;;24.10;12.50;;;;;;;-6.52;66.92;101765.92;130288;1276;114817;-65
2024/01/08 13:35:00;;;;;;;20.40;10.10;;;;;;;-6.51;66.87;101764.09;130364;1274;114740;-66
2024/01/08 13:38:03;;;;;;;29.90;13.80;;;;;;;-6.49;66.95;101770.23;130013;1259;127861;-65